sensor_id;sensor_type;location;lat;lon;timestamp;P1;durP1;ratioP1;P2;durP2;ratioP2
75718;SDS011;64340;48.534;-3.036;2023-01-31T00:01:05;3.97;;;1.80;;
75718;SDS011;64340;48.534;-3.036;2023-01-31T00:03:36;8.00;;;2.42;;
75718;SDS011;64340;48.534;-3.036;2023-01-31T00:06:14;7.20;;;2.13;;
75718;SDS011;64340;48.534;-3.036;2023-01-31T00:08:40;5.80;;;2.08;;
75718;SDS011;64340;48.534;-3.036;2023-01-31T00:11:06;5.15;;;1.75;;
75718;SDS011;64340;48.534;-3.036;2023-01-31T00:13:33;4.00;;;1.50;;
75718;SDS011;64340;48.534;-3.036;2023-01-31T00:15:58;8.88;;;2.72;;
75718;SDS011;64340;48.534;-3.036;2023-01-31T00:18:24;5.97;;;1.88;;
75718;SDS011;64340;48.534;-3.036;2023-01-31T00:20:51;5.22;;;1.80;;
75718;SDS011;64340;48.534;-3.036;2023-01-31T00:23:16;5.45;;;2.05;;
75718;SDS011;64340;48.534;-3.036;2023-01-31T00:25:42;5.40;;;1.60;;
75718;SDS011;64340;48.534;-3.036;2023-01-31T00:28:08;5.75;;;2.00;;
75718;SDS011;64340;48.534;-3.036;2023-01-31T00:30:34;6.43;;;1.83;;
75718;SDS011;64340;48.534;-3.036;2023-01-31T00:32:59;6.32;;;1.85;;
75718;SDS011;64340;48.534;-3.036;2023-01-31T00:35:25;4.47;;;1.90;;
75718;SDS011;64340;48.534;-3.036;2023-01-31T00:37:51;5.32;;;1.70;;
75718;SDS011;64340;48.534;-3.036;2023-01-31T00:40:17;6.05;;;1.60;;
75718;SDS011;64340;48.534;-3.036;2023-01-31T00:42:42;6.07;;;1.70;;
75718;SDS011;64340;48.534;-3.036;2023-01-31T00:45:08;5.28;;;1.98;;
75718;SDS011;64340;48.534;-3.036;2023-01-31T00:47:34;6.82;;;1.90;;
75718;SDS011;64340;48.534;-3.036;2023-01-31T00:50:00;5.45;;;1.92;;
75718;SDS011;64340;48.534;-3.036;2023-01-31T00:52:26;5.15;;;2.00;;
75718;SDS011;64340;48.534;-3.036;2023-01-31T00:54:52;6.25;;;2.10;;
75718;SDS011;64340;48.534;-3.036;2023-01-31T00:57:17;4.57;;;1.50;;
75718;SDS011;64340;48.534;-3.036;2023-01-31T00:59:43;4.88;;;1.33;;
75718;SDS011;64340;48.534;-3.036;2023-01-31T01:02:09;4.97;;;1.65;;
75718;SDS011;64340;48.534;-3.036;2023-01-31T01:04:35;3.65;;;1.40;;
75718;SDS011;64340;48.534;-3.036;2023-01-31T01:07:01;4.53;;;1.55;;
75718;SDS011;64340;48.534;-3.036;2023-01-31T01:09:27;4.15;;;1.40;;
75718;SDS011;64340;48.534;-3.036;2023-01-31T01:11:52;2.70;;;1.00;;
75718;SDS011;64340;48.534;-3.036;2023-01-31T01:14:18;4.20;;;1.42;;
75718;SDS011;64340;48.534;-3.036;2023-01-31T01:16:44;4.47;;;1.27;;
75718;SDS011;64340;48.534;-3.036;2023-01-31T01:19:17;3.88;;;1.00;;
75718;SDS011;64340;48.534;-3.036;2023-01-31T01:21:43;4.03;;;1.10;;
75718;SDS011;64340;48.534;-3.036;2023-01-31T01:24:15;6.07;;;1.65;;
75718;SDS011;64340;48.534;-3.036;2023-01-31T01:26:43;9.10;;;1.50;;
75718;SDS011;64340;48.534;-3.036;2023-01-31T01:29:09;6.22;;;1.60;;
75718;SDS011;64340;48.534;-3.036;2023-01-31T01:31:37;5.88;;;1.30;;
75718;SDS011;64340;48.534;-3.036;2023-01-31T01:34:05;3.75;;;1.10;;
75718;SDS011;64340;48.534;-3.036;2023-01-31T01:36:35;3.30;;;1.20;;
75718;SDS011;64340;48.534;-3.036;2023-01-31T01:39:03;5.93;;;1.38;;
75718;SDS011;64340;48.534;-3.036;2023-01-31T01:41:30;5.75;;;1.58;;
75718;SDS011;64340;48.534;-3.036;2023-01-31T01:44:00;4.63;;;1.33;;
75718;SDS011;64340;48.534;-3.036;2023-01-31T01:46:29;2.45;;;1.10;;
75718;SDS011;64340;48.534;-3.036;2023-01-31T01:49:03;4.65;;;1.20;;
75718;SDS011;64340;48.534;-3.036;2023-01-31T01:51:39;4.60;;;1.27;;
75718;SDS011;64340;48.534;-3.036;2023-01-31T01:54:08;2.95;;;0.85;;
75718;SDS011;64340;48.534;-3.036;2023-01-31T01:56:41;4.47;;;1.38;;
75718;SDS011;64340;48.534;-3.036;2023-01-31T01:59:13;2.65;;;0.88;;
75718;SDS011;64340;48.534;-3.036;2023-01-31T02:01:43;4.10;;;1.10;;
75718;SDS011;64340;48.534;-3.036;2023-01-31T02:04:12;4.00;;;1.30;;
75718;SDS011;64340;48.534;-3.036;2023-01-31T02:06:42;4.10;;;1.20;;
75718;SDS011;64340;48.534;-3.036;2023-01-31T02:09:10;3.25;;;1.00;;
75718;SDS011;64340;48.534;-3.036;2023-01-31T02:11:56;3.45;;;1.38;;
75718;SDS011;64340;48.534;-3.036;2023-01-31T02:14:23;4.88;;;1.48;;
75718;SDS011;64340;48.534;-3.036;2023-01-31T02:16:49;5.28;;;1.40;;
75718;SDS011;64340;48.534;-3.036;2023-01-31T02:19:20;6.88;;;1.42;;
75718;SDS011;64340;48.534;-3.036;2023-01-31T02:22:10;3.15;;;1.00;;
75718;SDS011;64340;48.534;-3.036;2023-01-31T02:25:13;3.47;;;1.10;;
75718;SDS011;64340;48.534;-3.036;2023-01-31T02:28:11;3.42;;;1.00;;
75718;SDS011;64340;48.534;-3.036;2023-01-31T02:34:11;2.63;;;1.10;;
75718;SDS011;64340;48.534;-3.036;2023-01-31T02:42:23;3.88;;;1.30;;
75718;SDS011;64340;48.534;-3.036;2023-01-31T02:47:48;2.95;;;0.88;;
75718;SDS011;64340;48.534;-3.036;2023-01-31T02:51:15;4.38;;;1.25;;
75718;SDS011;64340;48.534;-3.036;2023-01-31T02:53:39;2.90;;;0.95;;
75718;SDS011;64340;48.534;-3.036;2023-01-31T02:56:13;2.53;;;0.80;;
75718;SDS011;64340;48.534;-3.036;2023-01-31T02:59:02;3.63;;;1.10;;
75718;SDS011;64340;48.534;-3.036;2023-01-31T03:01:32;3.97;;;1.15;;
75718;SDS011;64340;48.534;-3.036;2023-01-31T03:04:05;4.32;;;1.10;;
75718;SDS011;64340;48.534;-3.036;2023-01-31T03:09:04;4.43;;;1.40;;
75718;SDS011;64340;48.534;-3.036;2023-01-31T03:14:21;2.85;;;0.88;;
75718;SDS011;64340;48.534;-3.036;2023-01-31T03:17:19;3.08;;;1.23;;
75718;SDS011;64340;48.534;-3.036;2023-01-31T03:25:17;4.00;;;1.00;;
75718;SDS011;64340;48.534;-3.036;2023-01-31T03:27:48;4.65;;;1.00;;
75718;SDS011;64340;48.534;-3.036;2023-01-31T03:30:42;4.15;;;1.13;;
75718;SDS011;64340;48.534;-3.036;2023-01-31T03:33:16;3.25;;;1.02;;
75718;SDS011;64340;48.534;-3.036;2023-01-31T03:35:54;2.55;;;0.60;;
75718;SDS011;64340;48.534;-3.036;2023-01-31T03:38:33;3.10;;;0.77;;
75718;SDS011;64340;48.534;-3.036;2023-01-31T03:41:04;4.57;;;0.90;;
75718;SDS011;64340;48.534;-3.036;2023-01-31T03:43:49;2.15;;;0.70;;
75718;SDS011;64340;48.534;-3.036;2023-01-31T03:46:33;2.80;;;0.70;;
75718;SDS011;64340;48.534;-3.036;2023-01-31T03:49:03;3.58;;;0.90;;
75718;SDS011;64340;48.534;-3.036;2023-01-31T03:51:33;3.72;;;1.10;;
75718;SDS011;64340;48.534;-3.036;2023-01-31T03:54:07;3.08;;;0.82;;
75718;SDS011;64340;48.534;-3.036;2023-01-31T03:56:51;1.85;;;0.60;;
75718;SDS011;64340;48.534;-3.036;2023-01-31T03:59:29;3.15;;;0.98;;
75718;SDS011;64340;48.534;-3.036;2023-01-31T04:02:00;5.05;;;1.02;;
75718;SDS011;64340;48.534;-3.036;2023-01-31T04:07:25;2.78;;;0.70;;
75718;SDS011;64340;48.534;-3.036;2023-01-31T04:09:51;2.92;;;1.00;;
75718;SDS011;64340;48.534;-3.036;2023-01-31T04:12:16;3.30;;;0.80;;
75718;SDS011;64340;48.534;-3.036;2023-01-31T04:14:42;2.95;;;1.02;;
75718;SDS011;64340;48.534;-3.036;2023-01-31T04:17:08;2.72;;;0.73;;
75718;SDS011;64340;48.534;-3.036;2023-01-31T04:19:33;2.17;;;0.70;;
75718;SDS011;64340;48.534;-3.036;2023-01-31T04:21:59;3.10;;;0.75;;
75718;SDS011;64340;48.534;-3.036;2023-01-31T04:24:25;3.80;;;0.90;;
75718;SDS011;64340;48.534;-3.036;2023-01-31T04:26:51;3.55;;;0.70;;
75718;SDS011;64340;48.534;-3.036;2023-01-31T04:29:16;3.25;;;0.90;;
75718;SDS011;64340;48.534;-3.036;2023-01-31T04:31:42;2.50;;;0.80;;
75718;SDS011;64340;48.534;-3.036;2023-01-31T04:34:08;2.97;;;1.27;;
75718;SDS011;64340;48.534;-3.036;2023-01-31T04:36:34;4.72;;;0.90;;
75718;SDS011;64340;48.534;-3.036;2023-01-31T04:38:59;6.95;;;1.20;;
75718;SDS011;64340;48.534;-3.036;2023-01-31T04:41:25;2.97;;;0.88;;
75718;SDS011;64340;48.534;-3.036;2023-01-31T04:43:51;2.65;;;0.90;;
75718;SDS011;64340;48.534;-3.036;2023-01-31T04:46:17;2.13;;;0.80;;
75718;SDS011;64340;48.534;-3.036;2023-01-31T04:48:43;3.08;;;0.80;;
75718;SDS011;64340;48.534;-3.036;2023-01-31T04:51:09;4.57;;;0.77;;
75718;SDS011;64340;48.534;-3.036;2023-01-31T04:53:34;2.42;;;0.90;;
75718;SDS011;64340;48.534;-3.036;2023-01-31T04:56:00;4.15;;;0.75;;
75718;SDS011;64340;48.534;-3.036;2023-01-31T04:58:27;2.38;;;0.75;;
75718;SDS011;64340;48.534;-3.036;2023-01-31T05:00:53;3.17;;;1.30;;
75718;SDS011;64340;48.534;-3.036;2023-01-31T05:03:18;3.47;;;0.90;;
75718;SDS011;64340;48.534;-3.036;2023-01-31T05:05:46;3.47;;;0.85;;
75718;SDS011;64340;48.534;-3.036;2023-01-31T05:08:13;3.47;;;0.88;;
75718;SDS011;64340;48.534;-3.036;2023-01-31T05:10:39;2.70;;;0.60;;
75718;SDS011;64340;48.534;-3.036;2023-01-31T05:13:06;3.33;;;0.95;;
75718;SDS011;64340;48.534;-3.036;2023-01-31T05:15:32;3.22;;;1.20;;
75718;SDS011;64340;48.534;-3.036;2023-01-31T05:17:58;2.92;;;0.82;;
75718;SDS011;64340;48.534;-3.036;2023-01-31T05:20:30;2.33;;;0.73;;
75718;SDS011;64340;48.534;-3.036;2023-01-31T05:22:59;3.42;;;0.90;;
75718;SDS011;64340;48.534;-3.036;2023-01-31T05:25:25;4.13;;;0.95;;
75718;SDS011;64340;48.534;-3.036;2023-01-31T05:27:51;3.53;;;0.80;;
75718;SDS011;64340;48.534;-3.036;2023-01-31T05:30:18;2.67;;;0.80;;
75718;SDS011;64340;48.534;-3.036;2023-01-31T05:32:45;4.03;;;1.02;;
75718;SDS011;64340;48.534;-3.036;2023-01-31T05:35:13;6.90;;;2.30;;
75718;SDS011;64340;48.534;-3.036;2023-01-31T05:37:38;9.00;;;3.08;;
75718;SDS011;64340;48.534;-3.036;2023-01-31T05:40:10;8.43;;;2.92;;
75718;SDS011;64340;48.534;-3.036;2023-01-31T05:42:37;7.25;;;2.45;;
75718;SDS011;64340;48.534;-3.036;2023-01-31T05:45:04;5.88;;;2.55;;
75718;SDS011;64340;48.534;-3.036;2023-01-31T05:47:30;8.38;;;2.60;;
75718;SDS011;64340;48.534;-3.036;2023-01-31T05:49:56;6.38;;;2.80;;
75718;SDS011;64340;48.534;-3.036;2023-01-31T05:52:22;8.23;;;2.83;;
75718;SDS011;64340;48.534;-3.036;2023-01-31T05:54:48;8.07;;;2.58;;
75718;SDS011;64340;48.534;-3.036;2023-01-31T05:57:13;9.13;;;2.83;;
75718;SDS011;64340;48.534;-3.036;2023-01-31T05:59:40;9.10;;;2.72;;
75718;SDS011;64340;48.534;-3.036;2023-01-31T06:02:06;5.63;;;2.25;;
75718;SDS011;64340;48.534;-3.036;2023-01-31T06:04:33;8.25;;;2.85;;
75718;SDS011;64340;48.534;-3.036;2023-01-31T06:06:59;8.70;;;3.22;;
75718;SDS011;64340;48.534;-3.036;2023-01-31T06:09:24;11.50;;;3.30;;
75718;SDS011;64340;48.534;-3.036;2023-01-31T06:11:50;8.80;;;2.63;;
75718;SDS011;64340;48.534;-3.036;2023-01-31T06:14:16;11.73;;;2.95;;
75718;SDS011;64340;48.534;-3.036;2023-01-31T06:16:42;11.63;;;3.08;;
75718;SDS011;64340;48.534;-3.036;2023-01-31T06:19:07;16.20;;;3.30;;
75718;SDS011;64340;48.534;-3.036;2023-01-31T06:21:33;11.30;;;2.90;;
75718;SDS011;64340;48.534;-3.036;2023-01-31T06:24:00;10.93;;;3.05;;
75718;SDS011;64340;48.534;-3.036;2023-01-31T06:26:25;9.43;;;2.88;;
75718;SDS011;64340;48.534;-3.036;2023-01-31T06:28:51;8.52;;;2.85;;
75718;SDS011;64340;48.534;-3.036;2023-01-31T06:31:17;9.95;;;2.72;;
75718;SDS011;64340;48.534;-3.036;2023-01-31T06:33:43;12.15;;;2.72;;
75718;SDS011;64340;48.534;-3.036;2023-01-31T06:36:09;11.10;;;2.33;;
75718;SDS011;64340;48.534;-3.036;2023-01-31T06:38:34;9.63;;;2.92;;
75718;SDS011;64340;48.534;-3.036;2023-01-31T06:41:00;7.82;;;2.20;;
75718;SDS011;64340;48.534;-3.036;2023-01-31T06:43:26;8.95;;;2.33;;
75718;SDS011;64340;48.534;-3.036;2023-01-31T06:45:52;6.38;;;2.13;;
75718;SDS011;64340;48.534;-3.036;2023-01-31T06:48:17;13.60;;;3.28;;
75718;SDS011;64340;48.534;-3.036;2023-01-31T06:50:45;8.48;;;2.53;;
75718;SDS011;64340;48.534;-3.036;2023-01-31T06:53:11;8.60;;;2.38;;
75718;SDS011;64340;48.534;-3.036;2023-01-31T06:55:37;9.73;;;2.38;;
75718;SDS011;64340;48.534;-3.036;2023-01-31T06:58:03;8.48;;;2.72;;
75718;SDS011;64340;48.534;-3.036;2023-01-31T07:00:29;9.25;;;2.53;;
75718;SDS011;64340;48.534;-3.036;2023-01-31T07:02:55;7.60;;;2.13;;
75718;SDS011;64340;48.534;-3.036;2023-01-31T07:05:21;5.70;;;1.80;;
75718;SDS011;64340;48.534;-3.036;2023-01-31T07:07:47;8.18;;;1.88;;
75718;SDS011;64340;48.534;-3.036;2023-01-31T07:10:14;7.35;;;1.83;;
75718;SDS011;64340;48.534;-3.036;2023-01-31T07:12:40;6.97;;;1.83;;
75718;SDS011;64340;48.534;-3.036;2023-01-31T07:15:06;8.68;;;2.03;;
75718;SDS011;64340;48.534;-3.036;2023-01-31T07:17:33;7.57;;;1.80;;
75718;SDS011;64340;48.534;-3.036;2023-01-31T07:19:59;6.40;;;1.67;;
75718;SDS011;64340;48.534;-3.036;2023-01-31T07:22:25;8.10;;;2.05;;
75718;SDS011;64340;48.534;-3.036;2023-01-31T07:24:51;6.63;;;2.28;;
75718;SDS011;64340;48.534;-3.036;2023-01-31T07:27:16;6.80;;;2.50;;
75718;SDS011;64340;48.534;-3.036;2023-01-31T07:29:42;6.90;;;2.00;;
75718;SDS011;64340;48.534;-3.036;2023-01-31T07:32:09;7.43;;;1.77;;
75718;SDS011;64340;48.534;-3.036;2023-01-31T07:34:35;6.05;;;1.60;;
75718;SDS011;64340;48.534;-3.036;2023-01-31T07:37:00;5.70;;;1.60;;
75718;SDS011;64340;48.534;-3.036;2023-01-31T07:39:27;6.03;;;1.80;;
75718;SDS011;64340;48.534;-3.036;2023-01-31T07:41:53;7.90;;;1.70;;
75718;SDS011;64340;48.534;-3.036;2023-01-31T07:44:19;4.88;;;1.38;;
75718;SDS011;64340;48.534;-3.036;2023-01-31T07:46:45;4.13;;;1.48;;
75718;SDS011;64340;48.534;-3.036;2023-01-31T07:49:11;3.75;;;1.27;;
75718;SDS011;64340;48.534;-3.036;2023-01-31T07:51:37;4.53;;;1.20;;
75718;SDS011;64340;48.534;-3.036;2023-01-31T07:54:06;6.15;;;1.88;;
75718;SDS011;64340;48.534;-3.036;2023-01-31T07:56:35;4.25;;;1.42;;
75718;SDS011;64340;48.534;-3.036;2023-01-31T07:59:00;3.95;;;1.30;;
75718;SDS011;64340;48.534;-3.036;2023-01-31T08:01:26;4.78;;;1.70;;
75718;SDS011;64340;48.534;-3.036;2023-01-31T08:04:12;6.35;;;1.30;;
75718;SDS011;64340;48.534;-3.036;2023-01-31T08:06:39;3.75;;;1.08;;
75718;SDS011;64340;48.534;-3.036;2023-01-31T08:09:06;3.55;;;1.30;;
75718;SDS011;64340;48.534;-3.036;2023-01-31T08:11:32;4.88;;;1.15;;
75718;SDS011;64340;48.534;-3.036;2023-01-31T08:13:58;5.82;;;1.60;;
75718;SDS011;64340;48.534;-3.036;2023-01-31T08:16:24;5.55;;;1.60;;
75718;SDS011;64340;48.534;-3.036;2023-01-31T08:18:50;5.97;;;1.67;;
75718;SDS011;64340;48.534;-3.036;2023-01-31T08:21:17;4.95;;;1.63;;
75718;SDS011;64340;48.534;-3.036;2023-01-31T08:23:43;5.80;;;1.40;;
75718;SDS011;64340;48.534;-3.036;2023-01-31T08:26:13;3.03;;;1.10;;
75718;SDS011;64340;48.534;-3.036;2023-01-31T08:28:41;4.38;;;1.48;;
75718;SDS011;64340;48.534;-3.036;2023-01-31T08:31:11;4.35;;;1.45;;
75718;SDS011;64340;48.534;-3.036;2023-01-31T08:33:39;2.85;;;1.10;;
75718;SDS011;64340;48.534;-3.036;2023-01-31T08:36:08;3.80;;;1.85;;
75718;SDS011;64340;48.534;-3.036;2023-01-31T08:38:41;3.85;;;1.20;;
75718;SDS011;64340;48.534;-3.036;2023-01-31T08:41:08;3.65;;;1.25;;
75718;SDS011;64340;48.534;-3.036;2023-01-31T08:43:35;3.90;;;1.15;;
75718;SDS011;64340;48.534;-3.036;2023-01-31T08:46:02;4.55;;;1.17;;
75718;SDS011;64340;48.534;-3.036;2023-01-31T08:48:31;5.93;;;1.50;;
75718;SDS011;64340;48.534;-3.036;2023-01-31T08:51:01;4.07;;;1.10;;
75718;SDS011;64340;48.534;-3.036;2023-01-31T08:53:28;3.83;;;1.17;;
75718;SDS011;64340;48.534;-3.036;2023-01-31T08:56:00;3.20;;;1.00;;
75718;SDS011;64340;48.534;-3.036;2023-01-31T08:58:27;3.80;;;1.27;;
75718;SDS011;64340;48.534;-3.036;2023-01-31T09:00:59;3.20;;;1.23;;
75718;SDS011;64340;48.534;-3.036;2023-01-31T09:03:28;3.08;;;1.50;;
75718;SDS011;64340;48.534;-3.036;2023-01-31T09:05:53;3.60;;;1.15;;
75718;SDS011;64340;48.534;-3.036;2023-01-31T09:08:23;4.30;;;1.33;;
75718;SDS011;64340;48.534;-3.036;2023-01-31T09:10:50;3.92;;;1.10;;
75718;SDS011;64340;48.534;-3.036;2023-01-31T09:13:17;3.40;;;1.17;;
75718;SDS011;64340;48.534;-3.036;2023-01-31T09:15:42;3.40;;;1.27;;
75718;SDS011;64340;48.534;-3.036;2023-01-31T09:18:08;3.97;;;1.20;;
75718;SDS011;64340;48.534;-3.036;2023-01-31T09:20:34;4.85;;;1.45;;
75718;SDS011;64340;48.534;-3.036;2023-01-31T09:22:59;4.05;;;1.20;;
75718;SDS011;64340;48.534;-3.036;2023-01-31T09:25:25;5.80;;;1.40;;
75718;SDS011;64340;48.534;-3.036;2023-01-31T09:27:52;3.55;;;1.10;;
75718;SDS011;64340;48.534;-3.036;2023-01-31T09:30:18;2.92;;;1.05;;
75718;SDS011;64340;48.534;-3.036;2023-01-31T09:32:43;4.30;;;1.25;;
75718;SDS011;64340;48.534;-3.036;2023-01-31T09:35:10;4.15;;;1.25;;
75718;SDS011;64340;48.534;-3.036;2023-01-31T09:37:37;4.57;;;1.20;;
75718;SDS011;64340;48.534;-3.036;2023-01-31T09:40:04;3.83;;;1.02;;
75718;SDS011;64340;48.534;-3.036;2023-01-31T09:42:37;3.00;;;1.25;;
75718;SDS011;64340;48.534;-3.036;2023-01-31T09:45:12;2.90;;;1.00;;
75718;SDS011;64340;48.534;-3.036;2023-01-31T09:47:48;2.97;;;1.55;;
75718;SDS011;64340;48.534;-3.036;2023-01-31T09:52:45;2.65;;;0.90;;
75718;SDS011;64340;48.534;-3.036;2023-01-31T09:55:35;4.75;;;1.63;;
75718;SDS011;64340;48.534;-3.036;2023-01-31T10:01:10;3.13;;;0.98;;
75718;SDS011;64340;48.534;-3.036;2023-01-31T10:06:47;4.15;;;1.45;;
75718;SDS011;64340;48.534;-3.036;2023-01-31T10:12:28;3.17;;;1.05;;
75718;SDS011;64340;48.534;-3.036;2023-01-31T10:15:12;3.35;;;1.38;;
75718;SDS011;64340;48.534;-3.036;2023-01-31T10:17:46;4.20;;;1.50;;
75718;SDS011;64340;48.534;-3.036;2023-01-31T10:22:56;2.55;;;0.98;;
75718;SDS011;64340;48.534;-3.036;2023-01-31T10:25:36;3.33;;;0.88;;
75718;SDS011;64340;48.534;-3.036;2023-01-31T10:28:34;2.97;;;1.27;;
75718;SDS011;64340;48.534;-3.036;2023-01-31T10:34:17;3.80;;;1.00;;
75718;SDS011;64340;48.534;-3.036;2023-01-31T10:36:58;4.43;;;1.25;;
75718;SDS011;64340;48.534;-3.036;2023-01-31T10:42:36;4.10;;;1.17;;
75718;SDS011;64340;48.534;-3.036;2023-01-31T10:47:36;2.55;;;0.80;;
75718;SDS011;64340;48.534;-3.036;2023-01-31T10:50:16;4.22;;;1.45;;
75718;SDS011;64340;48.534;-3.036;2023-01-31T10:52:51;3.00;;;1.00;;
75718;SDS011;64340;48.534;-3.036;2023-01-31T10:58:05;2.95;;;0.90;;
75718;SDS011;64340;48.534;-3.036;2023-01-31T11:00:39;4.35;;;1.60;;
75718;SDS011;64340;48.534;-3.036;2023-01-31T11:03:04;2.72;;;1.20;;
75718;SDS011;64340;48.534;-3.036;2023-01-31T11:05:30;3.83;;;1.25;;
75718;SDS011;64340;48.534;-3.036;2023-01-31T11:08:00;1.70;;;0.90;;
75718;SDS011;64340;48.534;-3.036;2023-01-31T11:10:35;4.53;;;0.95;;
75718;SDS011;64340;48.534;-3.036;2023-01-31T11:13:19;3.42;;;1.10;;
75718;SDS011;64340;48.534;-3.036;2023-01-31T11:15:45;2.97;;;1.00;;
75718;SDS011;64340;48.534;-3.036;2023-01-31T11:21:21;3.53;;;0.98;;
75718;SDS011;64340;48.534;-3.036;2023-01-31T11:23:51;4.05;;;0.90;;
75718;SDS011;64340;48.534;-3.036;2023-01-31T11:26:27;5.20;;;1.20;;
75718;SDS011;64340;48.534;-3.036;2023-01-31T11:28:56;2.50;;;0.63;;
75718;SDS011;64340;48.534;-3.036;2023-01-31T11:31:33;4.40;;;1.23;;
75718;SDS011;64340;48.534;-3.036;2023-01-31T11:34:03;2.70;;;0.82;;
75718;SDS011;64340;48.534;-3.036;2023-01-31T11:36:42;3.30;;;1.00;;
75718;SDS011;64340;48.534;-3.036;2023-01-31T11:39:27;3.22;;;1.00;;
75718;SDS011;64340;48.534;-3.036;2023-01-31T11:42:13;3.50;;;0.95;;
75718;SDS011;64340;48.534;-3.036;2023-01-31T11:45:42;3.70;;;1.00;;
75718;SDS011;64340;48.534;-3.036;2023-01-31T11:47:50;3.78;;;1.00;;
75718;SDS011;64340;48.534;-3.036;2023-01-31T11:50:18;7.03;;;1.27;;
75718;SDS011;64340;48.534;-3.036;2023-01-31T11:52:44;3.58;;;1.00;;
75718;SDS011;64340;48.534;-3.036;2023-01-31T11:55:15;3.53;;;1.10;;
75718;SDS011;64340;48.534;-3.036;2023-01-31T11:57:42;4.53;;;0.90;;
75718;SDS011;64340;48.534;-3.036;2023-01-31T12:02:57;5.90;;;1.05;;
75718;SDS011;64340;48.534;-3.036;2023-01-31T12:05:30;3.33;;;1.00;;
75718;SDS011;64340;48.534;-3.036;2023-01-31T12:08:24;3.58;;;0.95;;
75718;SDS011;64340;48.534;-3.036;2023-01-31T12:11:03;2.75;;;0.82;;
75718;SDS011;64340;48.534;-3.036;2023-01-31T12:13:30;3.42;;;0.90;;
75718;SDS011;64340;48.534;-3.036;2023-01-31T12:15:57;1.98;;;0.65;;
75718;SDS011;64340;48.534;-3.036;2023-01-31T12:21:09;4.07;;;0.88;;
75718;SDS011;64340;48.534;-3.036;2023-01-31T12:26:33;2.50;;;0.68;;
75718;SDS011;64340;48.534;-3.036;2023-01-31T12:36:59;5.72;;;1.05;;
75718;SDS011;64340;48.534;-3.036;2023-01-31T12:39:48;3.25;;;0.85;;
75718;SDS011;64340;48.534;-3.036;2023-01-31T12:45:17;2.55;;;0.98;;
75718;SDS011;64340;48.534;-3.036;2023-01-31T12:48:11;2.85;;;0.85;;
75718;SDS011;64340;48.534;-3.036;2023-01-31T12:53:44;2.92;;;0.80;;
75718;SDS011;64340;48.534;-3.036;2023-01-31T12:56:24;3.58;;;1.10;;
75718;SDS011;64340;48.534;-3.036;2023-01-31T12:59:38;5.50;;;1.27;;
75718;SDS011;64340;48.534;-3.036;2023-01-31T13:04:46;4.97;;;1.23;;
75718;SDS011;64340;48.534;-3.036;2023-01-31T13:07:19;3.70;;;1.25;;
75718;SDS011;64340;48.534;-3.036;2023-01-31T13:09:59;3.92;;;1.00;;
75718;SDS011;64340;48.534;-3.036;2023-01-31T13:12:28;2.70;;;1.00;;
75718;SDS011;64340;48.534;-3.036;2023-01-31T13:15:01;2.17;;;0.90;;
75718;SDS011;64340;48.534;-3.036;2023-01-31T13:17:31;2.97;;;1.17;;
75718;SDS011;64340;48.534;-3.036;2023-01-31T13:20:01;3.35;;;0.80;;
75718;SDS011;64340;48.534;-3.036;2023-01-31T13:22:30;4.38;;;1.42;;
75718;SDS011;64340;48.534;-3.036;2023-01-31T13:28:11;3.85;;;0.80;;
75718;SDS011;64340;48.534;-3.036;2023-01-31T13:39:14;3.85;;;1.20;;
75718;SDS011;64340;48.534;-3.036;2023-01-31T13:41:48;4.00;;;1.10;;
75718;SDS011;64340;48.534;-3.036;2023-01-31T13:44:14;2.85;;;1.00;;
75718;SDS011;64340;48.534;-3.036;2023-01-31T13:46:43;4.15;;;1.25;;
75718;SDS011;64340;48.534;-3.036;2023-01-31T13:52:28;3.97;;;1.00;;
75718;SDS011;64340;48.534;-3.036;2023-01-31T13:55:25;3.85;;;0.95;;
75718;SDS011;64340;48.534;-3.036;2023-01-31T13:58:05;2.85;;;1.05;;
75718;SDS011;64340;48.534;-3.036;2023-01-31T14:00:44;2.40;;;0.80;;
75718;SDS011;64340;48.534;-3.036;2023-01-31T14:03:15;3.75;;;0.90;;
75718;SDS011;64340;48.534;-3.036;2023-01-31T14:10:53;5.18;;;1.23;;
75718;SDS011;64340;48.534;-3.036;2023-01-31T14:15:56;9.38;;;3.15;;
75718;SDS011;64340;48.534;-3.036;2023-01-31T14:23:55;20.88;;;10.30;;
75718;SDS011;64340;48.534;-3.036;2023-01-31T14:26:49;21.00;;;8.45;;
75718;SDS011;64340;48.534;-3.036;2023-01-31T14:29:21;19.40;;;8.48;;
75718;SDS011;64340;48.534;-3.036;2023-01-31T14:31:50;20.40;;;8.25;;
75718;SDS011;64340;48.534;-3.036;2023-01-31T14:34:19;17.15;;;6.80;;
75718;SDS011;64340;48.534;-3.036;2023-01-31T14:39:48;11.18;;;5.40;;
75718;SDS011;64340;48.534;-3.036;2023-01-31T14:56:46;8.38;;;3.85;;
75718;SDS011;64340;48.534;-3.036;2023-01-31T15:01:53;6.32;;;2.95;;
75718;SDS011;64340;48.534;-3.036;2023-01-31T15:04:21;7.07;;;2.83;;
75718;SDS011;64340;48.534;-3.036;2023-01-31T15:06:49;6.45;;;2.90;;
75718;SDS011;64340;48.534;-3.036;2023-01-31T15:09:34;7.43;;;2.90;;
75718;SDS011;64340;48.534;-3.036;2023-01-31T15:12:01;7.35;;;2.60;;
75718;SDS011;64340;48.534;-3.036;2023-01-31T15:14:34;5.13;;;2.30;;
75718;SDS011;64340;48.534;-3.036;2023-01-31T15:17:12;5.25;;;2.40;;
75718;SDS011;64340;48.534;-3.036;2023-01-31T15:19:48;4.95;;;2.10;;
75718;SDS011;64340;48.534;-3.036;2023-01-31T15:22:17;6.07;;;2.35;;
75718;SDS011;64340;48.534;-3.036;2023-01-31T15:24:48;6.57;;;2.45;;
75718;SDS011;64340;48.534;-3.036;2023-01-31T15:27:17;6.18;;;2.47;;
75718;SDS011;64340;48.534;-3.036;2023-01-31T15:30:00;5.28;;;2.22;;
75718;SDS011;64340;48.534;-3.036;2023-01-31T15:40:27;4.72;;;2.00;;
75718;SDS011;64340;48.534;-3.036;2023-01-31T15:42:53;3.70;;;1.65;;
75718;SDS011;64340;48.534;-3.036;2023-01-31T15:45:38;3.63;;;1.67;;
75718;SDS011;64340;48.534;-3.036;2023-01-31T15:48:11;4.18;;;1.70;;
75718;SDS011;64340;48.534;-3.036;2023-01-31T15:50:38;4.80;;;1.88;;
75718;SDS011;64340;48.534;-3.036;2023-01-31T15:53:14;5.60;;;2.50;;
75718;SDS011;64340;48.534;-3.036;2023-01-31T15:55:41;8.30;;;3.38;;
75718;SDS011;64340;48.534;-3.036;2023-01-31T15:58:14;9.57;;;5.40;;
75718;SDS011;64340;48.534;-3.036;2023-01-31T16:00:43;7.93;;;4.85;;
75718;SDS011;64340;48.534;-3.036;2023-01-31T16:03:17;8.02;;;5.63;;
75718;SDS011;64340;48.534;-3.036;2023-01-31T16:05:53;10.75;;;6.13;;
75718;SDS011;64340;48.534;-3.036;2023-01-31T16:08:24;10.25;;;6.15;;
75718;SDS011;64340;48.534;-3.036;2023-01-31T16:10:59;10.30;;;5.97;;
75718;SDS011;64340;48.534;-3.036;2023-01-31T16:13:34;8.70;;;5.47;;
75718;SDS011;64340;48.534;-3.036;2023-01-31T16:16:03;11.38;;;5.55;;
75718;SDS011;64340;48.534;-3.036;2023-01-31T16:18:31;7.32;;;4.90;;
75718;SDS011;64340;48.534;-3.036;2023-01-31T16:21:10;8.30;;;5.30;;
75718;SDS011;64340;48.534;-3.036;2023-01-31T16:23:46;7.28;;;5.05;;
75718;SDS011;64340;48.534;-3.036;2023-01-31T16:26:36;7.20;;;4.95;;
75718;SDS011;64340;48.534;-3.036;2023-01-31T16:29:08;7.57;;;4.75;;
75718;SDS011;64340;48.534;-3.036;2023-01-31T16:31:45;11.93;;;4.85;;
75718;SDS011;64340;48.534;-3.036;2023-01-31T16:34:23;6.70;;;4.22;;
75718;SDS011;64340;48.534;-3.036;2023-01-31T16:36:51;6.72;;;4.03;;
75718;SDS011;64340;48.534;-3.036;2023-01-31T16:39:42;7.85;;;4.38;;
75718;SDS011;64340;48.534;-3.036;2023-01-31T16:44:44;6.72;;;3.75;;
75718;SDS011;64340;48.534;-3.036;2023-01-31T16:52:44;9.07;;;4.28;;
75718;SDS011;64340;48.534;-3.036;2023-01-31T16:55:15;7.75;;;3.67;;
75718;SDS011;64340;48.534;-3.036;2023-01-31T16:57:45;7.93;;;3.53;;
75718;SDS011;64340;48.534;-3.036;2023-01-31T17:02:52;6.20;;;3.58;;
75718;SDS011;64340;48.534;-3.036;2023-01-31T17:05:27;7.53;;;3.35;;
75718;SDS011;64340;48.534;-3.036;2023-01-31T17:08:17;6.43;;;3.20;;
75718;SDS011;64340;48.534;-3.036;2023-01-31T17:10:44;5.47;;;3.42;;
75718;SDS011;64340;48.534;-3.036;2023-01-31T17:15:45;7.95;;;3.33;;
75718;SDS011;64340;48.534;-3.036;2023-01-31T17:18:12;5.95;;;3.15;;
75718;SDS011;64340;48.534;-3.036;2023-01-31T17:20:39;9.90;;;3.42;;
75718;SDS011;64340;48.534;-3.036;2023-01-31T17:23:06;5.63;;;3.70;;